Wetterdaten: Woche 11.10.10 - 17.10.10 (KW41)
Datum Zeit Temp. Innen Temp. Aussen UV X Diff Temp. Feuchte Inne Feuchte Auss Sonnenschein Luftdruck Regen ab 0,1 Wind Sonnenschein T Regendauer Windben
11.10.2010 00:00 19,6 C 9,9 C 0,1 UV-I 0,0 C 49 % 77 % 0 % 1014,2 hPa 0,0 l/m 0,0 km/h (0 Bft) 0,00 h 0,90 h 0,0 km/h (0 Bft)
11.10.2010 01:00 19,2 C 8,7 C 0,1 UV-I 0,0 C 49 % 82 % 0 % 1014,0 hPa 0,0 l/m 0,0 km/h (0 Bft) 0,00 h 1,00 h 0,0 km/h (0 Bft)
11.10.2010 02:00 19,0 C 8,0 C 0,1 UV-I 0,0 C 50 % 85 % 0 % 1013,9 hPa 0,0 l/m 0,0 km/h (0 Bft) 0,00 h 0,93 h 0,2 km/h (0 Bft)
11.10.2010 03:00 18,7 C 7,6 C 0,1 UV-I 0,0 C 50 % 86 % 0 % 1013,7 hPa 0,0 l/m 0,0 km/h (0 Bft) 0,00 h 0,57 h 0,1 km/h (0 Bft)
11.10.2010 04:00 18,6 C 7,2 C 0,1 UV-I 0,0 C 50 % 87 % 0 % 1013,7 hPa 0,0 l/m 0,1 km/h (0 Bft) 0,00 h 0,73 h 0,3 km/h (0 Bft)
11.10.2010 05:00 18,4 C 6,8 C 0,1 UV-I 0,0 C 50 % 85 % 0 % 1013,9 hPa 0,0 l/m 0,1 km/h (0 Bft) 0,00 h 0,77 h 0,4 km/h (0 Bft)
11.10.2010 06:00 18,2 C 5,9 C 0,0 UV-I 0,0 C 48 % 85 % 0 % 1013,8 hPa 0,0 l/m 0,0 km/h (0 Bft) 0,00 h 1,00 h 0,0 km/h (0 Bft)
11.10.2010 07:00 17,6 C 4,7 C 0,1 UV-I 0,0 C 47 % 87 % 0 % 1013,7 hPa 0,0 l/m 0,0 km/h (0 Bft) 0,00 h 1,00 h 0,0 km/h (0 Bft)
11.10.2010 08:00 17,3 C 4,2 C 0,4 UV-I 0,0 C 47 % 90 % 0 % 1014,1 hPa 0,0 l/m 0,0 km/h (0 Bft) 0,00 h 1,00 h 0,2 km/h (0 Bft)
11.10.2010 09:00 17,4 C 6,4 C 0,9 UV-I 4,1 C 51 % 89 % 76 % 1014,8 hPa 0,0 l/m 1,3 km/h (1 Bft) 0,77 h 0,90 h 2,9 km/h (1 Bft)
11.10.2010 10:00 17,7 C 9,2 C 1,8 UV-I 7,6 C 52 % 79 % 100 % 1015,3 hPa 0,0 l/m 1,9 km/h (1 Bft) 1,00 h 0,10 h 2,2 km/h (1 Bft)
11.10.2010 11:00 18,0 C 11,9 C 2,1 UV-I 8,5 C 51 % 70 % 100 % 1015,1 hPa 0,0 l/m 4,4 km/h (1 Bft) 1,00 h 0,00 h 7,0 km/h (2 Bft)
11.10.2010 12:00 18,3 C 13,7 C 3,3 UV-I 6,6 C 51 % 62 % 100 % 1015,5 hPa 0,0 l/m 9,9 km/h (2 Bft) 1,00 h 0,00 h 9,6 km/h (2 Bft)
11.10.2010 13:00 19,3 C 15,5 C 3,7 UV-I 6,5 C 49 % 55 % 100 % 1016,3 hPa 0,0 l/m 9,4 km/h (2 Bft) 1,00 h 0,00 h 10,1 km/h (2 Bft)
11.10.2010 14:00 21,0 C 17,2 C 4,1 UV-I 6,2 C 44 % 50 % 100 % 1018,9 hPa 0,0 l/m 8,2 km/h (2 Bft) 1,00 h 0,00 h 8,5 km/h (2 Bft)
11.10.2010 15:00 22,6 C 17,7 C 3,4 UV-I 4,9 C 39 % 45 % 100 % 1018,0 hPa 0,0 l/m 11,7 km/h (2 Bft) 1,00 h 0,00 h 12,3 km/h (3 Bft)
11.10.2010 16:00 23,7 C 18,1 C 2,3 UV-I 4,5 C 36 % 42 % 100 % 1017,8 hPa 0,0 l/m 8,7 km/h (2 Bft) 1,00 h 0,00 h 9,3 km/h (2 Bft)
11.10.2010 17:00 23,7 C 16,8 C 1,2 UV-I 2,5 C 35 % 41 % 66 % 1016,3 hPa 0,0 l/m 6,3 km/h (2 Bft) 0,77 h 0,00 h 7,0 km/h (2 Bft)
11.10.2010 18:00 22,6 C 14,9 C 0,4 UV-I 0,0 C 38 % 48 % 0 % 1015,1 hPa 0,0 l/m 2,5 km/h (1 Bft) 0,00 h 0,13 h 1,9 km/h (1 Bft)
11.10.2010 19:00 21,3 C 12,9 C 0,1 UV-I 0,0 C 40 % 56 % 0 % 1015,0 hPa 0,0 l/m 0,6 km/h (0 Bft) 0,00 h 0,33 h 0,7 km/h (0 Bft)
11.10.2010 20:00 20,3 C 10,6 C 0,1 UV-I 0,0 C 42 % 65 % 0 % 1015,4 hPa 0,0 l/m 0,0 km/h (0 Bft) 0,00 h 0,60 h 0,0 km/h (0 Bft)
11.10.2010 21:00 19,5 C 8,7 C 0,0 UV-I 0,0 C 44 % 73 % 0 % 1015,8 hPa 0,0 l/m 0,0 km/h (0 Bft) 0,00 h 0,60 h 0,0 km/h (0 Bft)
11.10.2010 22:00 19,1 C 7,7 C 0,0 UV-I 0,0 C 45 % 77 % 0 % 1016,1 hPa 0,0 l/m 0,0 km/h (0 Bft) 0,00 h 0,57 h 0,0 km/h (0 Bft)
11.10.2010 23:00 18,8 C 8,4 C 0,1 UV-I 0,0 C 47 % 79 % 0 % 1016,4 hPa 0,0 l/m 0,3 km/h (0 Bft) 0,00 h 0,60 h 0,2 km/h (0 Bft)
12.10.2010 00:00 18,6 C 8,2 C 0,1 UV-I 0,0 C 47 % 78 % 0 % 1016,3 hPa 0,0 l/m 0,0 km/h (0 Bft) 0,00 h 0,67 h 0,0 km/h (0 Bft)
12.10.2010 01:00 18,4 C 6,4 C 0,1 UV-I 0,0 C 47 % 83 % 0 % 1016,2 hPa 0,0 l/m 0,0 km/h (0 Bft) 0,00 h 0,83 h 0,0 km/h (0 Bft)
12.10.2010 02:00 18,1 C 5,2 C 0,0 UV-I 0,0 C 47 % 86 % 0 % 1015,9 hPa 0,0 l/m 0,0 km/h (0 Bft) 0,00 h 0,90 h 0,0 km/h (0 Bft)
12.10.2010 03:00 17,8 C 4,6 C 0,0 UV-I 0,0 C 47 % 88 % 0 % 1015,9 hPa 0,0 l/m 0,1 km/h (0 Bft) 0,00 h 0,90 h 0,1 km/h (0 Bft)
12.10.2010 04:00 17,6 C 4,3 C 0,0 UV-I 0,0 C 47 % 90 % 0 % 1016,0 hPa 0,0 l/m 0,2 km/h (0 Bft) 0,00 h 1,00 h 0,4 km/h (0 Bft)
12.10.2010 05:00 17,3 C 4,1 C 0,0 UV-I 0,0 C 47 % 91 % 0 % 1015,9 hPa 0,0 l/m 0,1 km/h (0 Bft) 0,00 h 1,00 h 0,2 km/h (0 Bft)
12.10.2010 06:00 17,1 C 4,0 C 0,0 UV-I 0,0 C 47 % 92 % 0 % 1016,4 hPa 0,0 l/m 0,6 km/h (0 Bft) 0,00 h 1,00 h 1,2 km/h (1 Bft)
12.10.2010 07:00 16,9 C 3,9 C 0,1 UV-I 0,0 C 48 % 92 % 0 % 1016,5 hPa 0,0 l/m 0,9 km/h (0 Bft) 0,00 h 1,00 h 1,2 km/h (1 Bft)
12.10.2010 08:00 16,8 C 3,7 C 0,3 UV-I 0,0 C 48 % 92 % 0 % 1016,7 hPa 0,0 l/m 2,9 km/h (1 Bft) 0,00 h 1,00 h 3,9 km/h (1 Bft)
12.10.2010 09:00 16,8 C 4,3 C 0,6 UV-I 0,0 C 50 % 94 % 1 % 1016,9 hPa 0,0 l/m 6,9 km/h (2 Bft) 0,00 h 1,00 h 6,9 km/h (2 Bft)
12.10.2010 10:00 17,1 C 4,9 C 1,0 UV-I 0,4 C 50 % 94 % 10 % 1017,3 hPa 0,0 l/m 6,6 km/h (2 Bft) 0,00 h 1,00 h 7,3 km/h (2 Bft)
12.10.2010 11:00 17,2 C 5,5 C 1,4 UV-I 0,9 C 50 % 94 % 25 % 1017,3 hPa 0,0 l/m 7,6 km/h (2 Bft) 0,00 h 0,87 h 8,4 km/h (2 Bft)
12.10.2010 12:00 17,4 C 6,2 C 1,5 UV-I 1,2 C 50 % 94 % 34 % 1017,5 hPa 0,0 l/m 6,7 km/h (2 Bft) 0,00 h 0,80 h 7,5 km/h (2 Bft)
12.10.2010 13:00 17,6 C 6,6 C 1,6 UV-I 1,2 C 50 % 92 % 34 % 1017,1 hPa 0,0 l/m 8,4 km/h (2 Bft) 0,00 h 0,80 h 9,0 km/h (2 Bft)
12.10.2010 14:00 17,6 C 6,7 C 1,6 UV-I 1,1 C 50 % 90 % 30 % 1017,2 hPa 0,0 l/m 9,4 km/h (2 Bft) 0,00 h 0,80 h 10,7 km/h (2 Bft)
12.10.2010 15:00 18,2 C 7,7 C 2,5 UV-I 3,4 C 49 % 87 % 83 % 1017,3 hPa 0,0 l/m 9,6 km/h (2 Bft) 0,70 h 0,50 h 11,1 km/h (2 Bft)
12.10.2010 16:00 20,3 C 9,0 C 2,0 UV-I 4,0 C 44 % 80 % 100 % 1018,9 hPa 0,0 l/m 10,3 km/h (2 Bft) 1,00 h 0,27 h 11,9 km/h (2 Bft)
12.10.2010 17:00 20,9 C 9,0 C 1,1 UV-I 1,6 C 42 % 80 % 47 % 1018,1 hPa 0,0 l/m 11,1 km/h (2 Bft) 0,53 h 0,73 h 11,9 km/h (2 Bft)
12.10.2010 18:00 19,8 C 8,1 C 0,4 UV-I 0,0 C 44 % 83 % 0 % 1016,9 hPa 0,0 l/m 3,7 km/h (1 Bft) 0,00 h 0,93 h 3,6 km/h (1 Bft)
12.10.2010 19:00 18,6 C 7,1 C 0,0 UV-I 0,0 C 46 % 86 % 0 % 1016,4 hPa 0,0 l/m 0,7 km/h (0 Bft) 0,00 h 0,83 h 1,0 km/h (0 Bft)
12.10.2010 20:00 17,9 C 6,1 C 0,0 UV-I 0,0 C 48 % 87 % 0 % 1016,6 hPa 0,0 l/m 3,4 km/h (1 Bft) 0,00 h 1,00 h 3,8 km/h (1 Bft)
12.10.2010 21:00 17,5 C 4,9 C 0,0 UV-I 0,0 C 48 % 89 % 0 % 1016,8 hPa 0,0 l/m 0,1 km/h (0 Bft) 0,00 h 1,00 h 0,0 km/h (0 Bft)
12.10.2010 22:00 17,2 C 4,1 C 0,0 UV-I 0,0 C 48 % 90 % 0 % 1016,7 hPa 0,0 l/m 0,0 km/h (0 Bft) 0,00 h 1,00 h 0,0 km/h (0 Bft)
12.10.2010 23:00 17,0 C 3,6 C 0,0 UV-I 0,0 C 48 % 91 % 0 % 1016,6 hPa 0,0 l/m 0,0 km/h (0 Bft) 0,00 h 1,00 h 0,0 km/h (0 Bft)
13.10.2010 00:00 16,8 C 3,2 C 0,0 UV-I 0,0 C 48 % 92 % 0 % 1016,2 hPa 0,0 l/m 0,0 km/h (0 Bft) 0,00 h 1,00 h 0,0 km/h (0 Bft)
13.10.2010 01:00 16,7 C 2,8 C 0,0 UV-I 0,0 C 48 % 92 % 0 % 1016,2 hPa 0,0 l/m 0,0 km/h (0 Bft) 0,00 h 1,00 h 0,0 km/h (0 Bft)
13.10.2010 02:00 16,6 C 2,4 C 0,0 UV-I 0,0 C 48 % 93 % 0 % 1016,3 hPa 0,0 l/m 0,0 km/h (0 Bft) 0,00 h 1,00 h 0,0 km/h (0 Bft)
13.10.2010 03:00 16,4 C 2,5 C 0,0 UV-I 0,0 C 48 % 93 % 0 % 1016,2 hPa 0,0 l/m 0,0 km/h (0 Bft) 0,00 h 1,00 h 0,0 km/h (0 Bft)
13.10.2010 04:00 16,4 C 3,3 C 0,0 UV-I 0,0 C 49 % 94 % 0 % 1016,0 hPa 0,0 l/m 2,3 km/h (1 Bft) 0,00 h 1,00 h 3,4 km/h (1 Bft)
13.10.2010 05:00 16,4 C 3,5 C 0,0 UV-I 0,0 C 49 % 94 % 0 % 1016,0 hPa 0,0 l/m 3,1 km/h (1 Bft) 0,00 h 0,93 h 3,0 km/h (1 Bft)
13.10.2010 06:00 16,3 C 3,1 C 0,1 UV-I 0,0 C 49 % 94 % 0 % 1016,2 hPa 0,0 l/m 1,1 km/h (1 Bft) 0,00 h 1,00 h 1,3 km/h (1 Bft)
13.10.2010 07:00 16,2 C 2,2 C 0,1 UV-I 0,0 C 49 % 94 % 0 % 1015,9 hPa 0,0 l/m 0,0 km/h (0 Bft) 0,00 h 1,00 h 0,0 km/h (0 Bft)
13.10.2010 08:00 16,0 C 2,0 C 0,4 UV-I 0,0 C 48 % 94 % 0 % 1015,9 hPa 0,0 l/m 0,4 km/h (0 Bft) 0,00 h 1,00 h 0,5 km/h (0 Bft)
13.10.2010 09:00 15,9 C 3,3 C 1,0 UV-I 2,8 C 49 % 95 % 64 % 1016,6 hPa 0,0 l/m 1,3 km/h (1 Bft) 0,63 h 0,20 h 1,8 km/h (1 Bft)
13.10.2010 10:00 16,1 C 6,0 C 1,6 UV-I 6,1 C 50 % 94 % 100 % 1016,8 hPa 0,0 l/m 5,2 km/h (1 Bft) 1,00 h 0,13 h 5,8 km/h (2 Bft)
13.10.2010 11:00 16,5 C 8,6 C 2,0 UV-I 6,9 C 50 % 84 % 100 % 1017,1 hPa 0,0 l/m 4,6 km/h (1 Bft) 1,00 h 0,00 h 6,7 km/h (2 Bft)
13.10.2010 12:00 16,9 C 10,5 C 3,2 UV-I 7,2 C 50 % 72 % 100 % 1016,9 hPa 0,0 l/m 5,0 km/h (1 Bft) 1,00 h 0,00 h 6,5 km/h (2 Bft)
13.10.2010 13:00 17,6 C 11,4 C 3,4 UV-I 5,9 C 48 % 66 % 100 % 1017,4 hPa 0,0 l/m 5,7 km/h (1 Bft) 1,00 h 0,00 h 6,4 km/h (2 Bft)
13.10.2010 14:00 19,0 C 12,4 C 3,5 UV-I 5,9 C 45 % 62 % 100 % 1019,2 hPa 0,0 l/m 4,8 km/h (1 Bft) 1,00 h 0,00 h 6,0 km/h (2 Bft)
13.10.2010 15:00 20,6 C 12,9 C 2,9 UV-I 5,8 C 41 % 60 % 100 % 1018,6 hPa 0,0 l/m 4,9 km/h (1 Bft) 1,00 h 0,00 h 6,5 km/h (2 Bft)
13.10.2010 16:00 21,4 C 12,6 C 1,9 UV-I 4,3 C 40 % 61 % 100 % 1018,5 hPa 0,0 l/m 5,8 km/h (2 Bft) 1,00 h 0,00 h 7,3 km/h (2 Bft)
13.10.2010 17:00 21,3 C 11,7 C 1,0 UV-I 1,7 C 40 % 64 % 48 % 1017,3 hPa 0,0 l/m 7,3 km/h (2 Bft) 0,43 h 0,00 h 8,0 km/h (2 Bft)
13.10.2010 18:00 20,1 C 10,4 C 0,4 UV-I 0,0 C 42 % 70 % 0 % 1016,3 hPa 0,0 l/m 3,0 km/h (1 Bft) 0,00 h 0,00 h 2,4 km/h (1 Bft)
13.10.2010 19:00 18,8 C 8,2 C 0,0 UV-I 0,0 C 44 % 77 % 0 % 1016,2 hPa 0,0 l/m 0,0 km/h (0 Bft) 0,00 h 0,17 h 0,0 km/h (0 Bft)
13.10.2010 20:00 17,9 C 6,3 C 0,0 UV-I 0,0 C 46 % 83 % 0 % 1016,1 hPa 0,0 l/m 0,0 km/h (0 Bft) 0,00 h 0,40 h 0,0 km/h (0 Bft)
13.10.2010 21:00 17,3 C 5,1 C 0,0 UV-I 0,0 C 47 % 87 % 0 % 1016,0 hPa 0,0 l/m 0,0 km/h (0 Bft) 0,00 h 0,37 h 0,0 km/h (0 Bft)
13.10.2010 22:00 17,0 C 4,4 C 0,0 UV-I 0,0 C 48 % 89 % 0 % 1015,9 hPa 0,0 l/m 0,0 km/h (0 Bft) 0,00 h 0,43 h 0,0 km/h (0 Bft)
13.10.2010 23:00 16,8 C 3,8 C 0,0 UV-I 0,0 C 48 % 90 % 0 % 1016,0 hPa 0,0 l/m 0,0 km/h (0 Bft) 0,00 h 0,67 h 0,0 km/h (0 Bft)
14.10.2010 00:00 16,6 C 3,4 C 0,0 UV-I 0,0 C 48 % 91 % 0 % 1015,4 hPa 0,0 l/m 0,0 km/h (0 Bft) 0,00 h 0,47 h 0,0 km/h (0 Bft)
14.10.2010 01:00 16,4 C 2,8 C 0,0 UV-I 0,0 C 48 % 92 % 0 % 1015,4 hPa 0,0 l/m 0,0 km/h (0 Bft) 0,00 h 0,53 h 0,0 km/h (0 Bft)
14.10.2010 02:00 16,3 C 2,4 C 0,0 UV-I 0,0 C 48 % 92 % 0 % 1015,3 hPa 0,0 l/m 0,0 km/h (0 Bft) 0,00 h 0,47 h 0,0 km/h (0 Bft)
14.10.2010 03:00 16,2 C 2,0 C 0,0 UV-I 0,0 C 47 % 92 % 0 % 1015,3 hPa 0,0 l/m 0,0 km/h (0 Bft) 0,00 h 0,70 h 0,0 km/h (0 Bft)
14.10.2010 04:00 15,9 C 1,8 C 0,0 UV-I 0,0 C 47 % 93 % 0 % 1015,0 hPa 0,0 l/m 0,0 km/h (0 Bft) 0,00 h 0,60 h 0,0 km/h (0 Bft)
14.10.2010 05:00 15,9 C 1,6 C 0,0 UV-I 0,0 C 47 % 93 % 0 % 1014,9 hPa 0,0 l/m 0,0 km/h (0 Bft) 0,00 h 0,67 h 0,0 km/h (0 Bft)
14.10.2010 06:00 15,7 C 1,3 C 0,0 UV-I 0,0 C 47 % 93 % 0 % 1015,0 hPa 0,0 l/m 0,0 km/h (0 Bft) 0,00 h 0,73 h 0,0 km/h (0 Bft)
14.10.2010 07:00 15,6 C 1,2 C 0,0 UV-I 0,0 C 47 % 94 % 0 % 1014,9 hPa 0,0 l/m 0,0 km/h (0 Bft) 0,00 h 0,63 h 0,0 km/h (0 Bft)
14.10.2010 08:00 15,3 C 1,2 C 0,4 UV-I 0,0 C 47 % 93 % 0 % 1015,0 hPa 0,0 l/m 0,0 km/h (0 Bft) 0,00 h 0,60 h 0,0 km/h (0 Bft)
14.10.2010 09:00 15,3 C 3,1 C 0,9 UV-I 0,7 C 48 % 95 % 20 % 1015,4 hPa 0,0 l/m 0,0 km/h (0 Bft) 0,00 h 0,27 h 0,0 km/h (0 Bft)
14.10.2010 10:00 15,5 C 5,2 C 1,4 UV-I 1,9 C 49 % 95 % 55 % 1015,9 hPa 0,0 l/m 0,0 km/h (0 Bft) 0,00 h 0,10 h 0,1 km/h (0 Bft)
14.10.2010 11:00 15,8 C 6,6 C 1,0 UV-I 1,5 C 50 % 95 % 43 % 1016,1 hPa 0,0 l/m 0,0 km/h (0 Bft) 0,00 h 0,00 h 0,2 km/h (0 Bft)
14.10.2010 12:00 15,9 C 8,0 C 1,3 UV-I 1,2 C 51 % 92 % 33 % 1016,5 hPa 0,0 l/m 1,1 km/h (1 Bft) 0,00 h 0,00 h 1,9 km/h (1 Bft)
14.10.2010 13:00 16,1 C 9,3 C 1,7 UV-I 1,5 C 51 % 87 % 43 % 1016,5 hPa 0,0 l/m 1,4 km/h (1 Bft) 0,00 h 0,00 h 2,1 km/h (1 Bft)
14.10.2010 14:00 16,4 C 10,4 C 1,9 UV-I 1,7 C 52 % 85 % 49 % 1016,3 hPa 0,0 l/m 2,4 km/h (1 Bft) 0,00 h 0,00 h 3,3 km/h (1 Bft)
14.10.2010 15:00 16,6 C 11,1 C 1,5 UV-I 1,4 C 53 % 84 % 41 % 1016,2 hPa 0,0 l/m 2,2 km/h (1 Bft) 0,00 h 0,00 h 3,7 km/h (1 Bft)
14.10.2010 16:00 16,7 C 11,4 C 0,9 UV-I 0,6 C 53 % 82 % 17 % 1016,1 hPa 0,0 l/m 2,5 km/h (1 Bft) 0,00 h 0,00 h 2,7 km/h (1 Bft)
14.10.2010 17:00 16,6 C 11,1 C 0,4 UV-I 0,0 C 54 % 83 % 1 % 1016,1 hPa 0,0 l/m 0,4 km/h (0 Bft) 0,00 h 0,00 h 0,0 km/h (0 Bft)
14.10.2010 18:00 16,5 C 10,7 C 0,2 UV-I 0,0 C 55 % 85 % 0 % 1016,1 hPa 0,0 l/m 0,3 km/h (0 Bft) 0,00 h 0,13 h 0,4 km/h (0 Bft)
14.10.2010 19:00 16,4 C 10,4 C 0,1 UV-I 0,0 C 56 % 87 % 0 % 1016,2 hPa 0,0 l/m 0,1 km/h (0 Bft) 0,00 h 0,00 h 0,0 km/h (0 Bft)
14.10.2010 20:00 16,4 C 10,3 C 0,0 UV-I 0,0 C 57 % 89 % 0 % 1016,2 hPa 0,0 l/m 0,1 km/h (0 Bft) 0,00 h 0,00 h 0,0 km/h (0 Bft)
14.10.2010 21:00 16,4 C 10,1 C 0,0 UV-I 0,0 C 58 % 90 % 0 % 1016,2 hPa 0,0 l/m 0,0 km/h (0 Bft) 0,00 h 0,03 h 0,0 km/h (0 Bft)
14.10.2010 22:00 16,4 C 10,0 C 0,0 UV-I 0,0 C 59 % 91 % 0 % 1016,0 hPa 0,0 l/m 0,0 km/h (0 Bft) 0,00 h 0,13 h 0,0 km/h (0 Bft)
14.10.2010 23:00 16,4 C 10,0 C 0,0 UV-I 0,0 C 59 % 91 % 0 % 1016,2 hPa 0,0 l/m 0,1 km/h (0 Bft) 0,00 h 0,03 h 0,3 km/h (0 Bft)
15.10.2010 00:00 16,4 C 10,0 C 0,0 UV-I 0,0 C 59 % 91 % 0 % 1016,0 hPa 0,0 l/m 0,1 km/h (0 Bft) 0,00 h 0,03 h 0,4 km/h (0 Bft)
15.10.2010 01:00 16,4 C 9,9 C 0,0 UV-I 0,0 C 59 % 92 % 0 % 1015,9 hPa 0,0 l/m 0,2 km/h (0 Bft) 0,00 h 0,00 h 0,0 km/h (0 Bft)
15.10.2010 02:00 16,4 C 9,8 C 0,0 UV-I 0,0 C 60 % 92 % 0 % 1015,6 hPa 0,0 l/m 0,0 km/h (0 Bft) 0,00 h 0,07 h 0,0 km/h (0 Bft)
15.10.2010 03:00 16,4 C 9,8 C 0,0 UV-I 0,0 C 60 % 92 % 0 % 1015,7 hPa 0,0 l/m 0,1 km/h (0 Bft) 0,00 h 0,07 h 0,3 km/h (0 Bft)
15.10.2010 04:00 16,4 C 9,8 C 0,0 UV-I 0,0 C 60 % 93 % 0 % 1015,1 hPa 0,0 l/m 0,0 km/h (0 Bft) 0,00 h 0,03 h 0,0 km/h (0 Bft)
15.10.2010 05:00 16,4 C 9,7 C 0,0 UV-I 0,0 C 60 % 93 % 0 % 1014,7 hPa 0,0 l/m 0,0 km/h (0 Bft) 0,00 h 0,03 h 0,1 km/h (0 Bft)
15.10.2010 06:00 16,4 C 9,8 C 0,0 UV-I 0,0 C 61 % 93 % 0 % 1014,6 hPa 0,0 l/m 0,7 km/h (0 Bft) 0,00 h 0,03 h 0,8 km/h (0 Bft)
15.10.2010 07:00 16,4 C 9,7 C 0,1 UV-I 0,0 C 61 % 93 % 0 % 1014,5 hPa 0,0 l/m 0,0 km/h (0 Bft) 0,00 h 0,03 h 0,1 km/h (0 Bft)
15.10.2010 08:00 16,2 C 9,5 C 0,2 UV-I 0,0 C 62 % 94 % 0 % 1014,4 hPa 0,0 l/m 0,0 km/h (0 Bft) 0,00 h 0,10 h 0,0 km/h (0 Bft)
15.10.2010 09:00 16,3 C 10,0 C 0,7 UV-I 0,2 C 62 % 94 % 5 % 1014,7 hPa 0,0 l/m 0,2 km/h (0 Bft) 0,00 h 0,00 h 0,4 km/h (0 Bft)
15.10.2010 10:00 16,6 C 10,8 C 1,1 UV-I 1,0 C 62 % 93 % 27 % 1014,7 hPa 0,0 l/m 1,0 km/h (0 Bft) 0,00 h 0,00 h 1,6 km/h (1 Bft)
15.10.2010 11:00 16,8 C 11,6 C 1,6 UV-I 1,2 C 61 % 89 % 35 % 1014,5 hPa 0,0 l/m 2,3 km/h (1 Bft) 0,00 h 0,00 h 3,2 km/h (1 Bft)
15.10.2010 12:00 17,0 C 12,5 C 2,1 UV-I 2,0 C 60 % 85 % 56 % 1014,4 hPa 0,0 l/m 3,7 km/h (1 Bft) 0,00 h 0,00 h 4,7 km/h (1 Bft)
15.10.2010 13:00 17,3 C 13,1 C 2,4 UV-I 2,3 C 59 % 81 % 67 % 1014,1 hPa 0,0 l/m 4,4 km/h (1 Bft) 0,00 h 0,00 h 4,8 km/h (1 Bft)
15.10.2010 14:00 18,3 C 14,0 C 2,3 UV-I 2,7 C 57 % 74 % 75 % 1013,8 hPa 0,0 l/m 4,1 km/h (1 Bft) 0,43 h 0,00 h 5,6 km/h (1 Bft)
15.10.2010 15:00 19,0 C 13,5 C 0,9 UV-I 0,8 C 54 % 76 % 22 % 1013,0 hPa 0,0 l/m 2,0 km/h (1 Bft) 0,00 h 0,17 h 3,3 km/h (1 Bft)
15.10.2010 16:00 18,9 C 12,6 C 0,4 UV-I 0,0 C 54 % 80 % 0 % 1012,3 hPa 0,0 l/m 2,0 km/h (1 Bft) 0,00 h 0,27 h 2,6 km/h (1 Bft)
15.10.2010 17:00 18,8 C 11,8 C 0,3 UV-I 0,0 C 55 % 84 % 0 % 1011,6 hPa 0,1 l/m 0,7 km/h (0 Bft) 0,00 h 0,73 h 0,9 km/h (0 Bft)
15.10.2010 18:00 18,6 C 11,2 C 0,2 UV-I 0,0 C 56 % 88 % 0 % 1011,1 hPa 1,2 l/m 0,7 km/h (0 Bft) 0,00 h 1,00 h 1,4 km/h (1 Bft)
15.10.2010 19:00 18,5 C 10,6 C 0,1 UV-I 0,0 C 57 % 91 % 0 % 1010,8 hPa 1,9 l/m 1,1 km/h (1 Bft) 0,00 h 1,00 h 1,9 km/h (1 Bft)
15.10.2010 20:00 18,4 C 10,3 C 0,0 UV-I 0,0 C 58 % 93 % 0 % 1010,4 hPa 1,3 l/m 0,9 km/h (0 Bft) 0,00 h 1,00 h 1,2 km/h (1 Bft)
15.10.2010 21:00 18,4 C 10,0 C 0,1 UV-I 0,0 C 58 % 93 % 0 % 1009,9 hPa 0,9 l/m 1,0 km/h (0 Bft) 0,00 h 1,00 h 1,7 km/h (1 Bft)
15.10.2010 22:00 18,4 C 9,6 C 0,0 UV-I 0,0 C 58 % 93 % 0 % 1009,5 hPa 0,5 l/m 0,0 km/h (0 Bft) 0,00 h 1,00 h 0,1 km/h (0 Bft)
15.10.2010 23:00 18,4 C 9,6 C 0,0 UV-I 0,0 C 58 % 94 % 0 % 1009,0 hPa 0,7 l/m 0,1 km/h (0 Bft) 0,00 h 1,00 h 0,3 km/h (0 Bft)
16.10.2010 00:00 18,3 C 9,4 C 0,0 UV-I 0,0 C 57 % 94 % 0 % 1008,7 hPa 0,3 l/m 0,6 km/h (0 Bft) 0,00 h 0,67 h 1,6 km/h (1 Bft)
16.10.2010 01:00 18,2 C 9,2 C 0,1 UV-I 0,0 C 57 % 94 % 0 % 1008,3 hPa 0,2 l/m 0,2 km/h (0 Bft) 0,00 h 0,87 h 0,6 km/h (0 Bft)
16.10.2010 02:00 18,3 C 9,1 C 0,1 UV-I 0,0 C 57 % 94 % 0 % 1008,0 hPa 0,7 l/m 1,1 km/h (1 Bft) 0,00 h 0,73 h 1,9 km/h (1 Bft)
16.10.2010 03:00 18,1 C 9,0 C 0,0 UV-I 0,0 C 57 % 94 % 0 % 1007,9 hPa 0,0 l/m 2,6 km/h (1 Bft) 0,00 h 0,00 h 4,8 km/h (1 Bft)
16.10.2010 04:00 18,1 C 8,7 C 0,0 UV-I 0,0 C 56 % 94 % 0 % 1007,6 hPa 0,0 l/m 3,1 km/h (1 Bft) 0,00 h 0,03 h 3,4 km/h (1 Bft)
16.10.2010 05:00 18,1 C 8,6 C 0,0 UV-I 0,0 C 56 % 94 % 0 % 1007,6 hPa 0,0 l/m 2,5 km/h (1 Bft) 0,00 h 0,00 h 2,6 km/h (1 Bft)
16.10.2010 06:00 18,1 C 8,5 C 0,1 UV-I 0,0 C 56 % 94 % 0 % 1007,9 hPa 0,0 l/m 1,4 km/h (1 Bft) 0,00 h 0,00 h 2,1 km/h (1 Bft)
16.10.2010 07:00 18,0 C 8,3 C 0,1 UV-I 0,0 C 55 % 94 % 0 % 1008,0 hPa 0,0 l/m 1,3 km/h (1 Bft) 0,00 h 0,00 h 1,8 km/h (1 Bft)
16.10.2010 08:00 18,0 C 8,0 C 0,3 UV-I 0,0 C 55 % 94 % 0 % 1008,3 hPa 0,0 l/m 0,4 km/h (0 Bft) 0,00 h 0,00 h 1,1 km/h (1 Bft)
16.10.2010 09:00 18,1 C 8,6 C 0,5 UV-I 0,0 C 55 % 94 % 0 % 1008,7 hPa 0,0 l/m 1,5 km/h (1 Bft) 0,00 h 0,03 h 1,9 km/h (1 Bft)
16.10.2010 10:00 18,2 C 9,1 C 0,9 UV-I 0,3 C 55 % 94 % 8 % 1009,3 hPa 0,0 l/m 4,4 km/h (1 Bft) 0,00 h 0,13 h 6,1 km/h (2 Bft)
16.10.2010 11:00 18,4 C 9,6 C 0,9 UV-I 0,4 C 55 % 93 % 10 % 1009,9 hPa 0,0 l/m 8,3 km/h (2 Bft) 0,00 h 0,00 h 9,1 km/h (2 Bft)
16.10.2010 12:00 18,3 C 9,6 C 1,1 UV-I 0,2 C 55 % 92 % 4 % 1010,5 hPa 0,7 l/m 10,3 km/h (2 Bft) 0,00 h 0,73 h 11,0 km/h (2 Bft)
16.10.2010 13:00 17,8 C 9,3 C 1,2 UV-I 0,0 C 57 % 92 % 0 % 1010,7 hPa 0,0 l/m 12,6 km/h (3 Bft) 0,00 h 0,67 h 14,9 km/h (3 Bft)
16.10.2010 14:00 17,5 C 8,2 C 0,9 UV-I 0,0 C 57 % 91 % 0 % 1011,4 hPa 0,3 l/m 19,1 km/h (3 Bft) 0,00 h 0,90 h 21,0 km/h (4 Bft)
16.10.2010 15:00 17,1 C 7,0 C 0,7 UV-I 0,0 C 55 % 90 % 0 % 1012,1 hPa 0,3 l/m 13,8 km/h (3 Bft) 0,00 h 0,60 h 13,3 km/h (3 Bft)
16.10.2010 16:00 16,9 C 6,9 C 0,6 UV-I 0,0 C 55 % 90 % 0 % 1012,8 hPa 0,2 l/m 12,9 km/h (3 Bft) 0,00 h 0,90 h 13,1 km/h (3 Bft)
16.10.2010 17:00 16,8 C 7,2 C 0,4 UV-I 0,0 C 55 % 89 % 0 % 1013,6 hPa 0,0 l/m 12,9 km/h (3 Bft) 0,00 h 0,03 h 13,6 km/h (3 Bft)
16.10.2010 18:00 16,6 C 7,5 C 0,2 UV-I 0,0 C 55 % 86 % 0 % 1014,2 hPa 0,0 l/m 13,8 km/h (3 Bft) 0,00 h 0,00 h 13,9 km/h (3 Bft)
16.10.2010 19:00 16,5 C 7,6 C 0,1 UV-I 0,0 C 54 % 84 % 0 % 1015,2 hPa 0,0 l/m 12,2 km/h (3 Bft) 0,00 h 0,00 h 12,8 km/h (3 Bft)
16.10.2010 20:00 16,5 C 7,6 C 0,1 UV-I 0,0 C 54 % 83 % 0 % 1015,9 hPa 0,0 l/m 13,1 km/h (3 Bft) 0,00 h 0,00 h 14,0 km/h (3 Bft)
16.10.2010 21:00 16,4 C 7,4 C 0,1 UV-I 0,0 C 53 % 81 % 0 % 1016,3 hPa 0,0 l/m 17,7 km/h (3 Bft) 0,00 h 0,00 h 18,4 km/h (3 Bft)
16.10.2010 22:00 16,3 C 7,0 C 0,0 UV-I 0,0 C 52 % 83 % 0 % 1016,8 hPa 0,0 l/m 13,4 km/h (3 Bft) 0,00 h 0,00 h 14,4 km/h (3 Bft)
16.10.2010 23:00 16,2 C 6,8 C 0,0 UV-I 0,0 C 52 % 84 % 0 % 1017,2 hPa 0,0 l/m 14,0 km/h (3 Bft) 0,00 h 0,00 h 16,1 km/h (3 Bft)
17.10.2010 00:00 16,2 C 6,5 C 0,0 UV-I 0,0 C 52 % 85 % 0 % 1017,7 hPa 0,0 l/m 11,1 km/h (2 Bft) 0,00 h 0,00 h 13,4 km/h (3 Bft)
17.10.2010 01:00 16,2 C 6,2 C 0,0 UV-I 0,0 C 52 % 85 % 0 % 1018,0 hPa 0,0 l/m 11,3 km/h (2 Bft) 0,00 h 0,00 h 13,4 km/h (3 Bft)
17.10.2010 02:00 16,1 C 6,0 C 0,0 UV-I 0,0 C 52 % 86 % 0 % 1018,5 hPa 0,0 l/m 12,1 km/h (2 Bft) 0,00 h 0,00 h 14,7 km/h (3 Bft)
17.10.2010 03:00 15,9 C 5,6 C 0,0 UV-I 0,0 C 52 % 86 % 0 % 1018,8 hPa 0,0 l/m 11,7 km/h (2 Bft) 0,00 h 0,00 h 13,6 km/h (3 Bft)
17.10.2010 04:00 16,0 C 5,3 C 0,0 UV-I 0,0 C 52 % 87 % 0 % 1018,9 hPa 0,0 l/m 9,5 km/h (2 Bft) 0,00 h 0,00 h 11,9 km/h (2 Bft)
17.10.2010 05:00 15,9 C 5,2 C 0,0 UV-I 0,0 C 52 % 88 % 0 % 1019,0 hPa 0,0 l/m 8,6 km/h (2 Bft) 0,00 h 0,00 h 9,7 km/h (2 Bft)
17.10.2010 06:00 15,8 C 5,2 C 0,0 UV-I 0,0 C 52 % 88 % 0 % 1019,6 hPa 0,0 l/m 7,5 km/h (2 Bft) 0,00 h 0,00 h 9,7 km/h (2 Bft)
17.10.2010 07:00 15,9 C 5,2 C 0,0 UV-I 0,0 C 52 % 88 % 0 % 1019,8 hPa 0,0 l/m 8,7 km/h (2 Bft) 0,00 h 0,00 h 10,6 km/h (2 Bft)
17.10.2010 08:00 15,8 C 5,1 C 0,0 UV-I 0,0 C 52 % 89 % 0 % 1020,2 hPa 0,0 l/m 8,8 km/h (2 Bft) 0,00 h 0,00 h 9,3 km/h (2 Bft)
17.10.2010 09:00 15,8 C 5,2 C 0,0 UV-I 0,0 C 52 % 89 % 0 % 1020,6 hPa 0,0 l/m 8,7 km/h (2 Bft) 0,00 h 0,00 h 10,3 km/h (2 Bft)
17.10.2010 10:00 15,8 C 5,4 C 0,8 UV-I 0,1 C 53 % 89 % 4 % 1021,0 hPa 0,0 l/m 11,1 km/h (2 Bft) 0,00 h 0,00 h 12,6 km/h (3 Bft)
17.10.2010 11:00 15,9 C 6,0 C 1,4 UV-I 0,2 C 53 % 88 % 6 % 1021,4 hPa 0,0 l/m 11,1 km/h (2 Bft) 0,00 h 0,00 h 12,7 km/h (3 Bft)
17.10.2010 12:00 15,9 C 6,3 C 0,9 UV-I 0,1 C 53 % 87 % 3 % 1021,6 hPa 0,0 l/m 9,5 km/h (2 Bft) 0,00 h 0,00 h 10,2 km/h (2 Bft)
17.10.2010 13:00 16,0 C 6,8 C 1,0 UV-I 0,3 C 53 % 87 % 10 % 1021,5 hPa 0,0 l/m 7,2 km/h (2 Bft) 0,00 h 0,00 h 7,6 km/h (2 Bft)
17.10.2010 14:00 16,1 C 7,2 C 1,1 UV-I 0,5 C 53 % 86 % 15 % 1021,3 hPa 0,0 l/m 5,1 km/h (1 Bft) 0,00 h 0,00 h 6,4 km/h (2 Bft)
17.10.2010 15:00 16,2 C 7,4 C 0,6 UV-I 0,2 C 53 % 85 % 5 % 1021,4 hPa 0,0 l/m 4,2 km/h (1 Bft) 0,00 h 0,00 h 5,9 km/h (2 Bft)
17.10.2010 16:00 16,1 C 7,4 C 0,4 UV-I 0,0 C 53 % 85 % 0 % 1021,4 hPa 0,0 l/m 6,1 km/h (2 Bft) 0,00 h 0,00 h 7,2 km/h (2 Bft)
17.10.2010 17:00 16,0 C 7,5 C 0,2 UV-I 0,0 C 53 % 85 % 0 % 1021,1 hPa 0,0 l/m 5,9 km/h (2 Bft) 0,00 h 0,00 h 7,5 km/h (2 Bft)
17.10.2010 18:00 16,0 C 7,5 C 0,0 UV-I 0,0 C 53 % 85 % 0 % 1021,3 hPa 0,0 l/m 4,3 km/h (1 Bft) 0,00 h 0,03 h 5,3 km/h (1 Bft)
17.10.2010 19:00 16,0 C 7,5 C 0,0 UV-I 0,0 C 53 % 86 % 0 % 1021,7 hPa 0,0 l/m 0,9 km/h (0 Bft) 0,00 h 0,03 h 1,6 km/h (1 Bft)
17.10.2010 20:00 15,9 C 7,4 C 0,0 UV-I 0,0 C 54 % 88 % 0 % 1022,1 hPa 0,0 l/m 0,0 km/h (0 Bft) 0,00 h 0,07 h 0,0 km/h (0 Bft)
17.10.2010 21:00 15,8 C 7,2 C 0,0 UV-I 0,0 C 54 % 89 % 0 % 1021,9 hPa 0,0 l/m 0,0 km/h (0 Bft) 0,00 h 0,07 h 0,0 km/h (0 Bft)
17.10.2010 22:00 15,8 C 7,1 C 0,0 UV-I 0,0 C 54 % 90 % 0 % 1021,7 hPa 0,0 l/m 0,0 km/h (0 Bft) 0,00 h 0,00 h 0,0 km/h (0 Bft)
17.10.2010 23:00 15,7 C 7,1 C 0,0 UV-I 0,0 C 55 % 90 % 0 % 1021,6 hPa 0,0 l/m 0,0 km/h (0 Bft) 0,00 h 0,03 h 0,0 km/h (0 Bft)
Min-Datum _ 14.10.10 14.10.10 11.10.10 11.10.10 11.10.10 11.10.10 11.10.10 16.10.10 - 11.10.10 - - 11.10.10
_ Min-Zeit 08:38 08:04 05:30 00:00 16:54 16:46 00:00 05:06 - 00:00 - - 00:00
Minimum _ 15,2 C 0,8 C 0,0 UV-I 0,0 C 35 % 39 % 0 % 1007,4 hPa - 0,0 km/h (0 Bft) - - 0,0 km/h (0 Bft)
Max-Datum _ 11.10.10 11.10.10 11.10.10 11.10.10 15.10.10 13.10.10 11.10.10 17.10.10 15.10.10 16.10.10 11.10.10 11.10.10 16.10.10
_ Max-Zeit 16:50 16:16 13:56 11:34 07:44 09:06 09:22 20:06 19:56 14:28 09:14 00:00 22:06
Maximum _ 24,0 C 18,3 C 4,2 UV-I 9,2 C 62 % 95 % 100 % 1022,3 hPa 1,9 l/m 21,3 km/h
SW (4 Bft)
0,03 h 0,03 h 42,5 km/h
S (6 Bft)
Durchschnitt _ 17,4 C 7,8 C 0,6 UV-I 0,8 C 51 % 86 % 16 % 1015,6 hPa #9,1 l/m 3,6 km/h (1 Bft) #19:16 h #64:20 h 4,1 km/h (1 Bft)
© 2012 W. Hausmann